Time;durP1;ratioP1;P1;durP2;ratioP2;P2;SDS_P1;SDS_P2;PMS_P1;PMS_P2;Temp;Humidity;BMP_temperature;BMP_pressure;BME280_temperature;BME280_humidity;BME280_pressure;Samples;Min_cycle;Max_cycle;Signal;HPM_P1;HPM_P2
2023/03/20 00:02:22;;;;;;;17.30;13.20;;;;;;;10.16;78.90;101603.75;6209925;28;20261;-72
2023/03/20 00:05:45;;;;;;;21.77;14.00;;;;;;;10.17;78.65;101614.13;6218120;28;20244;-72
2023/03/20 00:09:07;;;;;;;16.03;13.83;;;;;;;10.16;79.16;101611.66;6237264;28;20600;-72
2023/03/20 00:12:27;;;;;;;14.83;12.17;;;;;;;10.17;78.68;101611.50;6211656;28;22549;-72
2023/03/20 00:15:48;;;;;;;16.03;12.67;;;;;;;9.87;80.25;101615.25;6219090;28;20312;-72
2023/03/20 00:19:15;;;;;;;17.37;12.97;;;;;;;10.02;80.01;101617.41;6230257;28;20305;-72
2023/03/20 00:22:37;;;;;;;17.23;12.57;;;;;;;10.01;79.78;101613.09;6218259;28;20228;-72
2023/03/20 00:25:58;;;;;;;16.77;11.70;;;;;;;10.10;79.45;101609.59;6211195;28;20240;-73
2023/03/20 00:29:22;;;;;;;20.70;13.83;;;;;;;9.70;80.87;101608.13;6227001;28;20622;-72
2023/03/20 00:32:43;;;;;;;18.07;11.83;;;;;;;9.75;81.31;101603.22;6206647;28;20319;-73
2023/03/20 00:36:06;;;;;;;14.87;12.57;;;;;;;9.79;81.97;101598.50;6209067;28;20249;-73
2023/03/20 00:39:28;;;;;;;18.93;12.70;;;;;;;9.73;82.15;101597.25;6241608;28;20270;-71
2023/03/20 00:42:55;;;;;;;19.13;15.43;;;;;;;9.69;82.45;101589.81;6212477;28;20240;-73
2023/03/20 00:46:17;;;;;;;19.70;13.30;;;;;;;9.79;81.94;101598.50;6211651;28;20493;-73
2023/03/20 00:49:38;;;;;;;15.83;12.67;;;;;;;9.70;82.27;101604.66;6246987;28;20258;-73
2023/03/20 00:53:00;;;;;;;17.33;11.10;;;;;;;9.83;82.58;101590.16;6234391;28;20228;-74
2023/03/20 00:56:33;;;;;;;16.07;12.20;;;;;;;9.86;82.17;101597.78;6212301;28;20237;-72
2023/03/20 00:59:58;;;;;;;13.83;12.30;;;;;;;9.70;82.32;101591.47;6225975;28;20224;-73
2023/03/20 01:03:21;;;;;;;13.00;11.33;;;;;;;9.77;82.45;101587.25;6229707;28;20244;-73
2023/03/20 01:06:42;;;;;;;18.93;13.60;;;;;;;9.60;83.16;101599.38;6209198;28;20236;-72
2023/03/20 01:10:04;;;;;;;15.77;11.53;;;;;;;9.69;83.02;101601.19;6218144;28;20228;-71
2023/03/20 01:13:28;;;;;;;15.90;11.97;;;;;;;9.77;83.04;101589.91;6224818;28;20236;-72
2023/03/20 01:16:49;;;;;;;13.50;11.27;;;;;;;9.90;81.87;101593.88;6210491;28;20263;-73
2023/03/20 01:20:15;;;;;;;17.40;11.93;;;;;;;9.87;82.12;101595.97;6223247;28;20691;-72
2023/03/20 01:23:36;;;;;;;18.13;12.93;;;;;;;9.87;82.23;101603.88;6219620;28;20354;-73
2023/03/20 01:26:57;;;;;;;15.27;12.50;;;;;;;9.76;82.76;101602.25;6250017;28;20231;-72
2023/03/20 01:30:23;;;;;;;17.97;12.03;;;;;;;9.83;82.08;101605.13;6233420;28;20252;-73
2023/03/20 01:33:45;;;;;;;15.23;12.70;;;;;;;9.74;82.30;101595.44;6249934;28;20225;-72
2023/03/20 01:37:11;;;;;;;15.30;12.20;;;;;;;9.73;82.94;101599.06;6206992;28;20220;-73
2023/03/20 01:40:40;;;;;;;15.60;11.73;;;;;;;9.75;82.94;101599.75;6208574;28;20335;-72
2023/03/20 01:44:15;;;;;;;15.33;11.63;;;;;;;9.86;82.08;101596.94;6211227;28;20232;-72
2023/03/20 01:47:38;;;;;;;15.67;11.00;;;;;;;9.82;82.44;101598.22;6216121;28;20217;-73
2023/03/20 01:50:59;;;;;;;14.50;10.50;;;;;;;9.69;83.49;101603.81;6207785;28;20563;-73
2023/03/20 01:54:23;;;;;;;17.87;11.60;;;;;;;9.52;83.83;101607.16;6235512;28;20235;-73
2023/03/20 01:57:58;;;;;;;13.27;11.90;;;;;;;9.54;84.52;101603.41;6215457;28;20232;-72
2023/03/20 02:01:19;;;;;;;19.80;12.07;;;;;;;9.75;83.14;101594.47;6215514;28;20227;-72
2023/03/20 02:04:46;;;;;;;17.63;10.70;;;;;;;9.84;83.02;101604.16;6222757;28;20323;-72
2023/03/20 02:08:18;;;;;;;19.00;11.27;;;;;;;9.79;83.23;101603.75;6207222;28;20228;-72
2023/03/20 02:11:43;;;;;;;18.00;12.33;;;;;;;9.91;82.74;101597.34;6203743;28;20319;-73
2023/03/20 02:15:05;;;;;;;16.50;13.23;;;;;;;9.84;82.90;101591.81;6218163;28;20236;-73
2023/03/20 02:18:46;;;;;;;17.47;12.47;;;;;;;9.83;83.23;101591.97;6234158;28;20228;-73
2023/03/20 02:22:35;;;;;;;16.93;9.70;;;;;;;9.94;82.69;101595.22;6235694;28;20243;-72
2023/03/20 02:26:22;;;;;;;12.60;9.70;;;;;;;10.07;82.69;101594.06;6230595;28;20235;-72
2023/03/20 02:30:11;;;;;;;13.70;10.87;;;;;;;10.05;82.53;101596.84;6240770;28;20241;-73
2023/03/20 02:34:09;;;;;;;14.43;11.27;;;;;;;10.04;81.89;101597.00;6223870;28;20638;-72
2023/03/20 02:38:04;;;;;;;17.67;12.20;;;;;;;10.05;81.40;101590.75;6243825;28;20223;-73
2023/03/20 02:41:30;;;;;;;14.30;10.57;;;;;;;10.13;81.28;101594.31;6219193;28;20231;-73
2023/03/20 02:45:03;;;;;;;19.23;11.27;;;;;;;10.12;81.38;101594.47;6219293;28;20315;-72
2023/03/20 02:48:38;;;;;;;14.67;10.60;;;;;;;10.18;81.08;101586.78;6223150;28;20228;-72
2023/03/20 02:52:08;;;;;;;17.67;11.10;;;;;;;10.01;80.44;101592.84;6206525;28;20539;-72
2023/03/20 02:55:39;;;;;;;17.40;10.17;;;;;;;9.80;80.63;101586.97;6196154;28;20232;-72
2023/03/20 02:59:09;;;;;;;10.50;8.90;;;;;;;9.73;81.22;101585.88;6205723;28;20228;-72
2023/03/20 03:02:35;;;;;;;10.40;8.63;;;;;;;9.78;80.93;101589.75;6199122;28;20235;-72
2023/03/20 03:06:00;;;;;;;9.63;7.53;;;;;;;9.68;81.11;101590.78;6207972;28;20827;-73
2023/03/20 03:09:24;;;;;;;11.20;8.20;;;;;;;9.77;81.25;101595.16;6210771;28;20236;-72
2023/03/20 03:12:49;;;;;;;8.13;6.90;;;;;;;9.75;81.06;101592.66;6211283;28;20708;-73
2023/03/20 03:16:15;;;;;;;8.37;7.53;;;;;;;9.71;81.15;101586.06;6213226;28;20254;-72
2023/03/20 03:19:38;;;;;;;9.00;7.17;;;;;;;9.75;80.90;101582.13;6246877;28;20232;-72
2023/03/20 03:22:59;;;;;;;7.43;6.53;;;;;;;9.63;81.16;101574.56;6198941;28;20233;-73
2023/03/20 03:26:26;;;;;;;8.40;6.00;;;;;;;9.51;81.60;101573.88;6205944;28;20654;-72
2023/03/20 03:29:55;;;;;;;8.73;6.27;;;;;;;9.67;80.42;101576.75;6229453;28;20232;-74
2023/03/20 03:33:21;;;;;;;6.47;4.47;;;;;;;9.68;80.49;101577.59;6215772;28;20227;-72
2023/03/20 03:36:48;;;;;;;5.77;4.37;;;;;;;9.73;80.41;101568.25;6218893;28;20620;-73
2023/03/20 03:40:19;;;;;;;6.90;5.30;;;;;;;9.71;80.33;101559.69;6201767;28;20260;-73
2023/03/20 03:43:46;;;;;;;4.93;4.27;;;;;;;9.61;80.38;101558.88;6218955;28;22196;-72
2023/03/20 03:47:13;;;;;;;6.63;4.77;;;;;;;9.51;81.02;101564.19;6225491;28;20330;-73
2023/03/20 03:50:39;;;;;;;7.63;6.10;;;;;;;9.62;80.41;101563.19;6202946;28;20232;-72
2023/03/20 03:54:04;;;;;;;6.80;4.50;;;;;;;9.46;81.40;101566.44;6213436;28;20576;-73
2023/03/20 03:57:29;;;;;;;5.20;4.33;;;;;;;9.33;81.62;101572.97;6223713;28;20231;-72
2023/03/20 04:00:53;;;;;;;4.50;4.10;;;;;;;9.23;82.76;101573.00;6207201;28;20237;-72
2023/03/20 04:04:16;;;;;;;6.27;5.40;;;;;;;9.26;82.49;101570.91;6226610;28;20231;-72
2023/03/20 04:07:38;;;;;;;8.47;5.33;;;;;;;9.38;82.64;101581.28;6228227;28;20236;-73
2023/03/20 04:10:59;;;;;;;7.67;5.00;;;;;;;9.24;82.46;101575.50;6221196;28;20935;-73
2023/03/20 04:14:20;;;;;;;6.10;4.23;;;;;;;9.36;82.43;101570.06;6233110;28;20362;-72
2023/03/20 04:17:42;;;;;;;6.83;5.20;;;;;;;9.34;81.97;101569.38;6202145;28;20579;-73
2023/03/20 04:21:06;;;;;;;6.17;5.57;;;;;;;9.08;83.13;101558.59;6215214;28;20249;-73
2023/03/20 04:24:27;;;;;;;5.53;4.63;;;;;;;9.32;83.03;101563.41;6230142;28;20551;-72
2023/03/20 04:27:49;;;;;;;12.63;6.10;;;;;;;9.11;82.63;101571.50;6215236;28;20312;-73
2023/03/20 04:31:20;;;;;;;4.20;3.80;;;;;;;9.16;83.12;101574.53;6207812;28;20626;-73
2023/03/20 04:35:13;;;;;;;4.07;3.40;;;;;;;9.14;83.18;101558.88;6216211;28;20228;-73
2023/03/20 04:38:43;;;;;;;7.53;5.70;;;;;;;9.19;83.56;101566.34;6217408;28;20232;-72
2023/03/20 04:42:05;;;;;;;6.07;4.20;;;;;;;9.09;83.91;101557.63;6205648;28;20221;-74
2023/03/20 04:45:27;;;;;;;6.13;4.47;;;;;;;8.93;83.67;101563.47;6214855;28;20233;-72
2023/03/20 04:48:48;;;;;;;6.27;4.60;;;;;;;8.49;85.82;101559.59;6208472;28;20501;-73
2023/03/20 04:52:09;;;;;;;3.80;3.23;;;;;;;8.63;84.58;101563.63;6208468;28;20233;-73
2023/03/20 04:55:35;;;;;;;4.00;3.70;;;;;;;8.63;85.54;101567.09;6201525;28;20497;-72
2023/03/20 04:58:56;;;;;;;4.43;4.03;;;;;;;8.51;85.10;101557.66;6235997;28;20251;-73
2023/03/20 05:02:17;;;;;;;5.67;4.27;;;;;;;8.64;83.65;101560.84;6210553;28;20244;-73
2023/03/20 05:05:38;;;;;;;5.67;4.23;;;;;;;8.68;83.84;101558.78;6215320;28;25380;-73
2023/03/20 05:09:00;;;;;;;4.50;3.97;;;;;;;8.70;83.16;101556.84;6216259;28;20237;-74
2023/03/20 05:12:23;;;;;;;4.57;4.17;;;;;;;8.66;83.30;101561.53;6176846;28;20345;-72
2023/03/20 05:16:01;;;;;;;4.67;3.63;;;;;;;8.74;82.38;101563.50;6212444;28;20233;-72
2023/03/20 05:19:32;;;;;;;4.10;2.83;;;;;;;8.91;81.77;101575.94;6215265;28;20335;-73
2023/03/20 05:23:13;;;;;;;4.90;3.03;;;;;;;9.01;81.03;101573.31;6213729;28;20233;-72
2023/03/20 05:26:48;;;;;;;6.33;3.63;;;;;;;9.03;80.00;101571.38;6226265;28;20235;-72
2023/03/20 05:30:20;;;;;;;5.23;4.73;;;;;;;9.07;79.80;101568.31;6218892;28;20255;-73
2023/03/20 05:34:01;;;;;;;5.07;3.90;;;;;;;8.97;80.97;101577.19;6245385;28;20236;-73
2023/03/20 05:37:38;;;;;;;6.10;3.23;;;;;;;8.98;80.26;101577.06;6242044;28;20224;-73
2023/03/20 05:41:13;;;;;;;4.50;4.07;;;;;;;9.01;79.70;101582.06;6220188;28;20291;-73
2023/03/20 05:44:54;;;;;;;8.63;5.03;;;;;;;8.94;80.41;101588.84;6218425;28;20512;-72
2023/03/20 05:48:35;;;;;;;4.77;3.97;;;;;;;8.97;80.09;101588.56;6220616;28;20228;-73
2023/03/20 05:52:12;;;;;;;4.80;4.33;;;;;;;9.05;80.16;101591.31;6216526;28;20224;-73
2023/03/20 05:55:40;;;;;;;3.97;3.37;;;;;;;8.83;81.48;101595.06;6210194;28;20566;-72
2023/03/20 05:59:24;;;;;;;4.47;3.43;;;;;;;8.95;80.82;101608.09;6223653;28;20244;-72
2023/03/20 06:03:05;;;;;;;5.43;4.10;;;;;;;8.96;80.54;101609.78;6194624;28;20315;-72
2023/03/20 06:06:47;;;;;;;4.27;3.70;;;;;;;8.76;80.79;101601.88;6205956;28;20252;-73
2023/03/20 06:10:10;;;;;;;3.57;3.27;;;;;;;8.86;81.61;101607.13;6226423;28;22442;-73
2023/03/20 06:13:31;;;;;;;4.00;2.87;;;;;;;8.65;81.26;101606.41;6221013;28;20267;-73
2023/03/20 06:16:55;;;;;;;4.70;4.30;;;;;;;8.62;82.29;101596.16;6206344;28;20229;-74
2023/03/20 06:20:17;;;;;;;4.13;3.73;;;;;;;8.59;81.92;101607.78;6218052;28;20516;-72
2023/03/20 06:23:40;;;;;;;3.57;2.63;;;;;;;8.76;81.88;101611.56;6220901;28;20228;-73
2023/03/20 06:27:01;;;;;;;4.40;4.00;;;;;;;8.72;81.80;101607.53;6217836;28;20232;-72
2023/03/20 06:30:22;;;;;;;5.63;3.63;;;;;;;8.83;81.10;101608.22;6205761;28;20228;-73
2023/03/20 06:33:44;;;;;;;5.57;3.33;;;;;;;8.72;81.45;101615.44;6203409;28;20232;-73
2023/03/20 06:37:05;;;;;;;5.10;3.50;;;;;;;8.72;81.50;101613.63;6212097;28;20239;-73
2023/03/20 06:40:28;;;;;;;3.60;3.23;;;;;;;8.56;82.34;101614.19;6202938;28;20233;-71
2023/03/20 06:43:49;;;;;;;7.57;3.43;;;;;;;8.67;82.01;101604.50;6197924;28;20244;-69
2023/03/20 06:47:12;;;;;;;4.00;3.70;;;;;;;8.55;82.17;101612.53;6188737;28;20236;-70
2023/03/20 06:50:33;;;;;;;3.27;3.07;;;;;;;8.54;82.28;101610.03;6223509;28;20706;-71
2023/03/20 06:53:54;;;;;;;3.23;2.93;;;;;;;8.69;81.06;101616.53;6210718;28;20235;-73
2023/03/20 06:57:21;;;;;;;3.77;2.57;;;;;;;8.53;81.66;101619.72;6190307;28;20224;-71
2023/03/20 07:00:42;;;;;;;6.30;3.30;;;;;;;8.71;81.04;101619.03;6202452;28;21930;-70
2023/03/20 07:04:03;;;;;;;3.90;3.33;;;;;;;8.83;79.94;101616.13;6218774;28;20251;-72
2023/03/20 07:07:31;;;;;;;7.07;3.97;;;;;;;8.68;80.39;101621.94;6197820;28;20639;-70
2023/03/20 07:10:53;;;;;;;3.23;2.90;;;;;;;8.61;80.88;101629.53;6213444;28;20224;-70
2023/03/20 07:14:16;;;;;;;4.60;3.33;;;;;;;8.70;80.86;101631.38;6232309;28;20258;-71
2023/03/20 07:17:47;;;;;;;3.30;3.00;;;;;;;8.76;81.77;101641.34;6208409;28;20252;-72
2023/03/20 07:21:09;;;;;;;4.67;4.27;;;;;;;8.96;80.58;101631.66;6201486;28;20239;-72
2023/03/20 07:24:30;;;;;;;7.07;3.70;;;;;;;8.68;80.61;101633.31;6200904;28;20642;-72
2023/03/20 07:27:51;;;;;;;3.37;2.97;;;;;;;8.82;80.78;101626.78;6200300;28;20232;-74
2023/03/20 07:31:21;;;;;;;6.27;4.07;;;;;;;8.82;80.37;101637.31;6218944;28;20240;-72
2023/03/20 07:34:48;;;;;;;4.13;3.30;;;;;;;8.74;80.37;101632.75;6222218;28;20228;-71
2023/03/20 07:38:11;;;;;;;5.03;3.83;;;;;;;8.69;80.27;101640.22;6195315;28;20342;-70
2023/03/20 07:41:42;;;;;;;3.23;2.87;;;;;;;8.83;80.87;101636.34;6225810;28;20320;-70
2023/03/20 07:45:06;;;;;;;7.70;2.80;;;;;;;8.76;81.49;101643.16;6225388;28;20256;-70
2023/03/20 07:48:28;;;;;;;7.47;2.83;;;;;;;8.84;80.80;101649.38;6231572;28;20228;-69
2023/03/20 07:51:53;;;;;;;4.07;3.67;;;;;;;8.98;80.19;101640.25;6209869;28;20233;-69
2023/03/20 07:55:14;;;;;;;5.47;4.53;;;;;;;8.82;79.93;101634.69;6220450;28;20266;-70
2023/03/20 07:58:35;;;;;;;5.40;4.27;;;;;;;9.00;79.56;101638.31;6222360;28;20327;-71
2023/03/20 08:01:56;;;;;;;3.73;2.57;;;;;;;8.89;78.84;101639.28;6216052;28;20224;-69
2023/03/20 08:05:18;;;;;;;4.27;3.00;;;;;;;8.97;79.02;101643.84;6221572;28;20252;-69
2023/03/20 08:08:39;;;;;;;2.77;2.57;;;;;;;8.88;78.62;101642.88;6222685;28;20236;-71
2023/03/20 08:12:00;;;;;;;2.50;2.30;;;;;;;8.83;80.28;101638.97;6214200;28;20742;-70
2023/03/20 08:15:22;;;;;;;6.13;3.47;;;;;;;8.98;78.72;101639.44;6212709;28;20591;-70
2023/03/20 08:18:43;;;;;;;2.50;2.30;;;;;;;8.82;78.64;101648.69;6231152;28;20794;-70
2023/03/20 08:22:05;;;;;;;2.47;2.00;;;;;;;8.88;78.78;101665.75;6212096;28;20221;-69
2023/03/20 08:25:28;;;;;;;3.90;2.83;;;;;;;8.89;78.23;101656.88;6217082;28;20319;-70
2023/03/20 08:28:49;;;;;;;3.17;2.87;;;;;;;8.89;78.43;101665.59;6237674;28;20237;-69
2023/03/20 08:32:10;;;;;;;3.47;3.00;;;;;;;8.86;78.61;101665.88;6227371;28;20416;-71
2023/03/20 08:35:30;;;;;;;3.10;2.77;;;;;;;8.85;78.46;101658.94;6207547;28;20621;-72
2023/03/20 08:38:52;;;;;;;3.03;2.23;;;;;;;8.97;77.83;101664.91;6218584;28;20232;-69
2023/03/20 08:42:14;;;;;;;2.93;2.67;;;;;;;8.94;77.94;101667.00;6232394;28;20235;-71
2023/03/20 08:45:35;;;;;;;7.33;4.17;;;;;;;9.03;78.17;101667.00;6225526;28;20614;-70
2023/03/20 08:48:57;;;;;;;3.00;2.70;;;;;;;9.04;77.65;101671.28;6241375;28;20229;-70
2023/03/20 08:52:19;;;;;;;4.47;3.57;;;;;;;9.22;77.16;101667.00;6218226;28;20236;-71
2023/03/20 08:55:41;;;;;;;6.37;3.40;;;;;;;9.38;76.91;101666.44;6225048;28;20327;-69
2023/03/20 08:59:02;;;;;;;4.83;3.17;;;;;;;9.11;78.27;101671.56;6232112;28;20220;-72
2023/03/20 09:02:23;;;;;;;6.07;4.93;;;;;;;9.27;77.96;101662.13;6220628;28;20775;-70
2023/03/20 09:05:44;;;;;;;3.33;2.97;;;;;;;8.97;78.88;101672.81;6211393;28;20232;-71
2023/03/20 09:09:06;;;;;;;4.77;4.03;;;;;;;8.98;79.51;101663.13;6230197;28;20259;-69
2023/03/20 09:12:30;;;;;;;3.53;3.10;;;;;;;9.08;78.59;101667.41;6221575;28;20235;-74
2023/03/20 09:15:52;;;;;;;3.00;2.80;;;;;;;9.21;78.02;101667.16;6211620;28;20260;-70
2023/03/20 09:19:12;;;;;;;4.40;2.83;;;;;;;9.08;76.93;101669.22;6226577;28;20229;-71
2023/03/20 09:22:33;;;;;;;2.50;2.30;;;;;;;9.16;76.80;101664.91;6232927;28;20714;-74
2023/03/20 09:25:54;;;;;;;3.47;2.63;;;;;;;8.99;77.24;101659.53;6214623;28;20243;-71
2023/03/20 09:29:16;;;;;;;4.47;2.97;;;;;;;9.11;76.59;101669.78;6233023;28;20236;-71
2023/03/20 09:32:37;;;;;;;3.07;2.73;;;;;;;9.13;76.55;101669.63;6225383;28;20231;-72
2023/03/20 09:35:58;;;;;;;3.70;3.03;;;;;;;9.21;76.36;101672.41;6224513;28;20235;-71
2023/03/20 09:39:19;;;;;;;4.23;2.90;;;;;;;9.42;75.36;101664.34;6219216;28;21807;-71
2023/03/20 09:42:47;;;;;;;3.93;3.07;;;;;;;9.46;74.79;101661.31;6209212;28;20237;-70
2023/03/20 09:46:20;;;;;;;5.27;4.77;;;;;;;9.38;75.44;101676.13;6218112;28;20223;-70
2023/03/20 09:49:53;;;;;;;4.90;3.43;;;;;;;9.58;74.74;101675.97;6226136;28;20228;-70
2023/03/20 09:53:38;;;;;;;4.25;3.85;;;;;;;9.44;74.95;101676.41;6447361;23;20223;31
2023/03/20 09:57:01;;;;;;;3.07;2.77;;;;;;;9.56;74.20;101677.91;6172855;28;20225;-70
2023/03/20 10:00:27;;;;;;;3.13;2.93;;;;;;;9.47;74.83;101685.84;6172933;28;20256;-70
2023/03/20 10:03:52;;;;;;;3.87;2.97;;;;;;;9.50;74.32;101683.75;6180171;28;20559;-70
2023/03/20 10:07:17;;;;;;;4.00;3.70;;;;;;;9.42;74.78;101681.00;6202759;28;20236;-69
2023/03/20 10:10:46;;;;;;;6.00;4.37;;;;;;;9.41;75.10;101676.69;6176115;28;20239;-70
2023/03/20 10:14:22;;;;;;;6.07;4.10;;;;;;;9.45;74.30;101679.88;6189194;28;20226;-70
2023/03/20 10:17:54;;;;;;;6.20;5.00;;;;;;;9.62;73.59;101689.69;6187427;28;20230;-70
2023/03/20 10:21:23;;;;;;;4.50;3.83;;;;;;;9.54;74.26;101684.28;6196143;28;20557;-72
2023/03/20 10:24:50;;;;;;;4.93;3.17;;;;;;;9.51;74.04;101687.22;6189900;28;20670;-71
2023/03/20 10:28:13;;;;;;;5.33;4.17;;;;;;;9.39;73.20;101681.28;6206965;28;20242;-71
2023/03/20 10:31:43;;;;;;;4.57;4.17;;;;;;;9.17;72.41;101681.56;6168069;28;20348;-73
2023/03/20 10:35:19;;;;;;;5.50;4.33;;;;;;;9.27;72.02;101670.03;6181215;28;20270;-72
2023/03/20 10:38:47;;;;;;;4.60;3.53;;;;;;;9.37;71.83;101664.75;6182903;28;20229;-72
2023/03/20 10:42:15;;;;;;;7.57;2.90;;;;;;;9.58;71.50;101644.34;6168913;28;20217;-72
2023/03/20 10:45:41;;;;;;;7.50;4.03;;;;;;;9.53;71.45;101649.19;6176948;28;20260;-73
2023/03/20 10:49:07;;;;;;;5.07;4.03;;;;;;;9.69;71.40;101650.44;6200736;28;20254;-71
2023/03/20 10:52:31;;;;;;;4.97;3.53;;;;;;;9.72;70.58;101650.94;6198105;28;20233;-70
2023/03/20 10:55:58;;;;;;;4.53;4.10;;;;;;;9.46;70.09;101650.75;6173452;28;20237;-70
2023/03/20 10:59:22;;;;;;;4.70;3.80;;;;;;;9.59;69.89;101646.00;6194152;28;20244;-73
2023/03/20 11:02:43;;;;;;;3.83;2.97;;;;;;;9.74;70.00;101638.47;6171612;28;20234;-71
2023/03/20 11:06:11;;;;;;;6.90;4.33;;;;;;;9.95;68.79;101631.16;6170971;28;20521;-71
2023/03/20 11:09:32;;;;;;;5.00;4.07;;;;;;;10.26;66.93;101636.22;6172330;28;20239;-72
2023/03/20 11:12:55;;;;;;;3.70;2.97;;;;;;;9.99;67.01;101646.69;6151235;28;20325;-71
2023/03/20 11:16:22;;;;;;;4.77;3.43;;;;;;;9.68;66.98;101635.59;6193472;28;20617;-69
2023/03/20 11:19:43;;;;;;;9.90;5.30;;;;;;;9.74;66.47;101645.53;6200067;28;20315;-71
2023/03/20 11:23:06;;;;;;;4.47;4.07;;;;;;;9.77;66.22;101645.25;6175665;28;20580;-72
2023/03/20 11:26:35;;;;;;;3.17;2.97;;;;;;;10.06;65.68;101635.44;6167018;28;20233;-72
2023/03/20 11:30:01;;;;;;;3.93;3.63;;;;;;;9.87;64.95;101631.09;6183372;28;20412;-72
2023/03/20 11:33:22;;;;;;;4.47;3.30;;;;;;;9.80;65.39;101615.97;6209063;28;20241;-70
2023/03/20 11:36:52;;;;;;;13.57;4.10;;;;;;;9.84;65.02;101620.81;6194071;28;20244;-70
2023/03/20 11:40:17;;;;;;;4.43;3.73;;;;;;;9.89;65.36;101631.78;6198831;28;20803;-71
2023/03/20 11:43:41;;;;;;;4.87;3.40;;;;;;;9.96;64.93;101618.81;6176242;28;20317;-71
2023/03/20 11:47:05;;;;;;;4.33;3.47;;;;;;;9.65;65.64;101622.69;6172968;28;20233;-72
2023/03/20 11:50:31;;;;;;;7.13;3.20;;;;;;;9.67;65.30;101626.84;6181285;28;20245;-71
2023/03/20 11:54:01;;;;;;;4.77;3.63;;;;;;;9.71;65.49;101628.22;6186946;28;20233;-70
2023/03/20 11:57:33;;;;;;;4.20;3.80;;;;;;;9.81;64.53;101621.09;6195509;28;20515;-71
2023/03/20 12:00:55;;;;;;;3.90;3.60;;;;;;;9.97;63.85;101620.47;6200741;28;20320;-73
2023/03/20 12:04:19;;;;;;;5.03;4.00;;;;;;;9.98;64.12;101613.41;6206278;28;20234;-71
2023/03/20 12:07:40;;;;;;;4.13;3.70;;;;;;;9.98;64.25;101624.78;6172898;28;20252;-73
2023/03/20 12:11:12;;;;;;;5.23;3.13;;;;;;;9.96;63.86;101613.53;6172212;28;20462;-71
2023/03/20 12:14:38;;;;;;;5.93;2.80;;;;;;;9.89;63.75;101625.66;6179322;28;20230;-70
2023/03/20 12:18:02;;;;;;;3.80;3.37;;;;;;;9.88;64.04;101613.44;6174875;28;20237;-71
2023/03/20 12:21:33;;;;;;;3.87;2.83;;;;;;;9.97;63.40;101614.38;6197917;28;20226;-72
2023/03/20 12:25:01;;;;;;;5.90;4.30;;;;;;;9.98;63.20;101610.75;6196504;28;20502;-72
2023/03/20 12:28:26;;;;;;;5.50;3.27;;;;;;;9.95;62.90;101612.72;6199367;28;20252;-70
2023/03/20 12:31:50;;;;;;;4.90;3.93;;;;;;;10.00;63.13;101601.72;6191763;28;20626;-69
2023/03/20 12:35:18;;;;;;;4.80;3.30;;;;;;;9.99;62.50;101615.06;6198411;28;20557;-69
2023/03/20 12:38:42;;;;;;;5.40;3.43;;;;;;;10.13;62.22;101609.31;6202698;28;20220;-69
2023/03/20 12:42:14;;;;;;;4.97;3.50;;;;;;;10.25;61.97;101608.16;6175182;28;20226;-72
2023/03/20 12:45:39;;;;;;;5.97;3.93;;;;;;;10.15;61.86;101612.66;6173855;28;20257;-70
2023/03/20 12:49:11;;;;;;;4.43;2.90;;;;;;;10.33;61.69;101592.44;6164775;28;20228;-71
2023/03/20 12:52:42;;;;;;;4.70;3.37;;;;;;;10.51;60.91;101595.09;6180800;28;20241;-70
2023/03/20 12:56:19;;;;;;;3.93;3.60;;;;;;;10.98;59.05;101594.84;6201624;28;20256;-70
2023/03/20 12:59:50;;;;;;;3.53;2.20;;;;;;;11.27;57.70;101583.03;6201587;28;20242;-71
2023/03/20 13:03:28;;;;;;;4.90;3.80;;;;;;;11.29;57.90;101585.53;6204208;28;20229;-72
2023/03/20 13:06:53;;;;;;;5.00;2.70;;;;;;;11.16;57.29;101578.00;6193820;28;20237;-71
2023/03/20 13:10:20;;;;;;;4.47;3.57;;;;;;;11.74;55.86;101577.38;6200048;28;20237;-73
2023/03/20 13:13:49;;;;;;;5.60;2.63;;;;;;;11.29;56.65;101570.50;6196179;28;22435;-69
2023/03/20 13:17:16;;;;;;;3.67;3.07;;;;;;;11.02;57.15;101570.63;6197823;28;20237;-71
2023/03/20 13:20:46;;;;;;;4.40;2.83;;;;;;;10.89;58.53;101568.38;6204687;28;20241;-64
2023/03/20 13:24:30;;;;;;;3.23;2.93;;;;;;;11.20;58.68;101558.22;6195033;28;20228;-64
2023/03/20 13:28:00;;;;;;;4.63;3.00;;;;;;;11.29;57.64;101556.47;6201754;28;20261;-64
2023/03/20 13:31:32;;;;;;;5.77;2.80;;;;;;;10.89;57.89;101556.97;6199282;28;20244;-64
2023/03/20 13:35:07;;;;;;;5.37;3.87;;;;;;;10.99;58.45;101563.00;6204575;28;20244;-64
2023/03/20 13:38:33;;;;;;;6.30;3.50;;;;;;;11.05;58.43;101567.69;6203103;28;20520;-64
2023/03/20 13:41:55;;;;;;;3.43;3.13;;;;;;;10.93;58.32;101564.44;6189452;28;20261;-65
2023/03/20 13:45:28;;;;;;;4.83;3.07;;;;;;;10.95;58.97;101551.09;6201212;28;20680;-65
2023/03/20 13:48:53;;;;;;;4.80;3.00;;;;;;;10.85;57.95;101555.59;6194091;28;20229;-64
2023/03/20 13:52:17;;;;;;;4.13;2.60;;;;;;;10.91;57.46;101549.72;6204085;28;20245;-64
2023/03/20 13:55:47;;;;;;;3.90;3.07;;;;;;;10.96;57.32;101550.94;6198305;28;20304;-63
2023/03/20 13:59:30;;;;;;;14.07;3.23;;;;;;;10.70;58.33;101544.78;6181439;28;20578;-65
2023/03/20 14:03:14;;;;;;;3.13;2.60;;;;;;;10.55;57.36;101548.94;6185714;28;20241;-70
2023/03/20 14:06:49;;;;;;;4.37;3.70;;;;;;;10.57;57.68;101536.41;6174692;28;20237;-72
2023/03/20 14:10:35;;;;;;;3.27;2.97;;;;;;;10.59;57.75;101547.66;6180322;28;20238;-70
2023/03/20 14:14:00;;;;;;;3.80;3.33;;;;;;;10.46;58.07;101548.03;6191088;28;20241;-69
2023/03/20 14:17:26;;;;;;;2.77;2.27;;;;;;;10.61;58.29;101545.69;6204885;28;20264;-73
2023/03/20 14:20:54;;;;;;;2.63;2.27;;;;;;;10.59;57.99;101542.38;6204565;28;20320;-71
2023/03/20 14:24:19;;;;;;;4.03;2.67;;;;;;;10.64;57.75;101534.81;6202033;28;20233;-73
2023/03/20 14:27:55;;;;;;;2.37;1.93;;;;;;;10.54;58.16;101550.75;6194935;28;20225;-73
2023/03/20 14:31:23;;;;;;;5.73;2.10;;;;;;;10.47;58.81;101544.41;6199666;28;20249;-74
2023/03/20 14:34:46;;;;;;;4.20;2.33;;;;;;;10.54;58.79;101544.63;6198309;28;20240;-69
2023/03/20 14:38:23;;;;;;;2.50;2.30;;;;;;;10.57;58.66;101537.25;6180082;28;20229;-71
2023/03/20 14:42:00;;;;;;;2.70;2.50;;;;;;;10.57;58.50;101537.25;6182612;28;20324;-73
2023/03/20 14:45:31;;;;;;;6.20;3.93;;;;;;;10.66;57.88;101538.13;6177922;28;20629;-73
2023/03/20 14:48:53;;;;;;;2.60;2.40;;;;;;;10.66;57.90;101546.06;6174670;28;20245;-71
2023/03/20 14:52:30;;;;;;;2.63;2.30;;;;;;;10.42;58.36;101545.81;6191143;28;20233;-70
2023/03/20 14:56:03;;;;;;;4.30;2.43;;;;;;;10.34;59.28;101538.69;6196717;28;20245;-72
2023/03/20 14:59:25;;;;;;;4.33;2.33;;;;;;;10.29;59.95;101554.13;6176031;28;20616;-70
2023/03/20 15:02:48;;;;;;;8.00;3.37;;;;;;;10.47;60.02;101543.56;6162505;28;20661;-70
2023/03/20 15:06:10;;;;;;;3.50;3.00;;;;;;;10.56;60.51;101546.16;6202799;28;24512;-71
2023/03/20 15:09:36;;;;;;;3.87;3.27;;;;;;;10.40;61.10;101553.88;6201983;28;20778;-73
2023/03/20 15:12:57;;;;;;;7.67;4.07;;;;;;;10.40;61.82;101543.31;6203499;28;20237;-73
2023/03/20 15:16:27;;;;;;;3.50;3.20;;;;;;;10.46;61.80;101545.38;6202559;28;20260;-73
2023/03/20 15:19:47;;;;;;;13.63;3.20;;;;;;;10.44;62.43;101542.06;6204519;28;20224;-72
2023/03/20 15:23:09;;;;;;;6.73;3.37;;;;;;;10.57;61.78;101550.44;6191213;28;20324;-69
2023/03/20 15:26:32;;;;;;;3.63;2.83;;;;;;;10.48;61.80;101551.34;6192757;28;20229;-70
2023/03/20 15:29:55;;;;;;;2.53;2.30;;;;;;;10.26;62.57;101554.41;6180678;28;20261;-70
2023/03/20 15:33:24;;;;;;;3.83;3.53;;;;;;;10.26;63.22;101557.88;6186512;28;20240;-70
2023/03/20 15:36:45;;;;;;;4.37;2.90;;;;;;;10.23;63.04;101552.91;6180929;28;20233;-73
2023/03/20 15:40:13;;;;;;;4.77;2.93;;;;;;;10.16;64.39;101551.00;6179563;28;20233;-70
2023/03/20 15:43:36;;;;;;;3.73;3.10;;;;;;;10.16;65.42;101545.72;6171721;28;21189;-70
2023/03/20 15:47:00;;;;;;;3.13;2.83;;;;;;;10.17;64.21;101550.81;6184415;28;20245;-72
2023/03/20 15:50:22;;;;;;;5.03;3.33;;;;;;;10.07;64.86;101552.69;6201759;28;20253;-71
2023/03/20 15:53:47;;;;;;;5.20;2.87;;;;;;;10.17;65.27;101547.34;6189131;28;20611;-68
2023/03/20 15:57:19;;;;;;;3.37;3.00;;;;;;;10.26;64.70;101546.50;6183101;28;20229;-70
2023/03/20 16:00:44;;;;;;;3.80;3.40;;;;;;;10.28;63.98;101542.72;6184179;28;20237;-70
2023/03/20 16:04:05;;;;;;;4.43;4.03;;;;;;;10.29;64.37;101548.84;6188613;28;20368;-71
2023/03/20 16:07:30;;;;;;;4.60;3.07;;;;;;;10.10;64.70;101549.75;6195559;28;20217;-71